createdAt,value
2023-01-28T00:00:51.928Z,3.57
2023-01-28T00:03:18.779Z,3.33
2023-01-28T00:05:45.195Z,3.37
2023-01-28T00:08:13.636Z,4.00
2023-01-28T00:10:40.901Z,3.20
2023-01-28T00:13:07.778Z,3.63
2023-01-28T00:15:34.372Z,3.70
2023-01-28T00:18:00.811Z,3.00
2023-01-28T00:20:27.175Z,3.27
2023-01-28T00:22:53.634Z,3.17
2023-01-28T00:25:20.805Z,3.63
2023-01-28T00:27:47.235Z,2.97
2023-01-28T00:30:13.912Z,3.10
2023-01-28T00:32:42.873Z,3.10
2023-01-28T00:35:09.914Z,3.93
2023-01-28T00:37:37.784Z,3.20
2023-01-28T00:40:04.582Z,3.60
2023-01-28T00:42:30.943Z,4.10
2023-01-28T00:44:57.283Z,3.77
2023-01-28T00:47:23.639Z,3.30
2023-01-28T00:49:49.982Z,3.60
2023-01-28T00:52:16.336Z,3.80
2023-01-28T00:54:42.708Z,3.60
2023-01-28T00:57:09.225Z,3.77
2023-01-28T00:59:35.610Z,3.87
2023-01-28T01:02:12.488Z,4.43
2023-01-28T01:04:40.100Z,3.77
2023-01-28T01:07:06.823Z,4.20
2023-01-28T01:09:33.251Z,4.03
2023-01-28T01:11:59.922Z,3.63
2023-01-28T01:14:26.418Z,4.50
2023-01-28T01:16:52.852Z,4.53
2023-01-28T01:19:19.261Z,3.87
2023-01-28T01:21:50.413Z,4.27
2023-01-28T01:24:17.188Z,4.57
2023-01-28T01:26:43.563Z,4.40
2023-01-28T01:29:09.990Z,4.60
2023-01-28T01:31:36.500Z,4.40
2023-01-28T01:34:03.034Z,3.90
2023-01-28T01:36:29.740Z,4.27
2023-01-28T01:38:56.291Z,3.80
2023-01-28T01:41:28.115Z,4.83
2023-01-28T01:44:00.408Z,5.10
2023-01-28T01:46:51.632Z,4.27
2023-01-28T01:49:26.877Z,4.00
2023-01-28T01:52:16.651Z,4.40
2023-01-28T01:54:46.817Z,4.57
2023-01-28T01:57:16.243Z,4.40
2023-01-28T01:59:43.871Z,4.57
2023-01-28T02:02:12.062Z,4.67
2023-01-28T02:04:44.789Z,4.40
2023-01-28T02:07:14.659Z,5.57
2023-01-28T02:09:41.590Z,5.03
2023-01-28T02:12:16.517Z,4.40
2023-01-28T02:14:48.709Z,4.90
2023-01-28T02:17:16.289Z,4.90
2023-01-28T02:20:00.067Z,8.70
2023-01-28T02:22:45.375Z,5.00
2023-01-28T02:25:26.863Z,4.50
2023-01-28T02:28:24.626Z,5.27
2023-01-28T02:31:06.841Z,5.80
2023-01-28T02:33:48.038Z,5.17
2023-01-28T02:36:23.822Z,5.17
2023-01-28T02:38:52.754Z,5.33
2023-01-28T02:41:31.631Z,5.53
2023-01-28T02:43:58.069Z,6.60
2023-01-28T02:46:46.207Z,6.37
2023-01-28T02:49:33.867Z,5.23
2023-01-28T02:52:15.342Z,7.83
2023-01-28T02:55:09.821Z,6.63
2023-01-28T02:57:47.449Z,5.77
2023-01-28T03:00:19.039Z,6.83
2023-01-28T03:02:56.597Z,6.27
2023-01-28T03:05:42.734Z,5.77
2023-01-28T03:08:28.876Z,6.20
2023-01-28T03:11:16.307Z,7.47
2023-01-28T03:14:04.534Z,6.73
2023-01-28T03:16:52.280Z,6.47
2023-01-28T03:19:37.048Z,6.43
2023-01-28T03:22:22.808Z,6.50
2023-01-28T03:25:11.080Z,8.30
2023-01-28T03:28:00.892Z,6.93
2023-01-28T03:30:54.873Z,5.70
2023-01-28T03:33:42.108Z,7.80
2023-01-28T03:36:27.974Z,6.43
2023-01-28T03:38:54.519Z,7.93
2023-01-28T03:41:23.618Z,7.27
2023-01-28T03:43:51.012Z,6.60
2023-01-28T03:46:18.508Z,7.33
2023-01-28T03:48:45.786Z,9.10
2023-01-28T03:51:12.253Z,7.33
2023-01-28T03:53:40.215Z,7.63
2023-01-28T03:56:07.563Z,7.10
2023-01-28T03:58:52.753Z,7.03
2023-01-28T04:01:19.904Z,7.60
2023-01-28T04:03:46.554Z,12.40
2023-01-28T04:06:12.902Z,8.67
2023-01-28T04:08:39.248Z,7.33
2023-01-28T04:11:19.427Z,8.13
2023-01-28T04:13:47.874Z,8.23
2023-01-28T04:16:16.284Z,9.27
2023-01-28T04:18:43.848Z,7.77
2023-01-28T04:21:10.583Z,8.33
2023-01-28T04:23:36.917Z,7.47
2023-01-28T04:26:04.258Z,8.87
2023-01-28T04:28:30.967Z,10.37
2023-01-28T04:30:57.410Z,7.90
2023-01-28T04:33:23.909Z,8.03
2023-01-28T04:35:50.435Z,8.33
2023-01-28T04:38:16.888Z,9.40
2023-01-28T04:40:43.414Z,8.70
2023-01-28T04:43:09.840Z,8.30
2023-01-28T04:45:36.205Z,8.20
2023-01-28T04:48:02.731Z,8.00
2023-01-28T04:50:29.130Z,8.90
2023-01-28T04:52:55.520Z,8.27
2023-01-28T04:55:22.178Z,7.47
2023-01-28T04:57:48.748Z,7.97
2023-01-28T05:00:15.620Z,7.87
2023-01-28T05:02:42.079Z,8.30
2023-01-28T05:05:09.097Z,8.53
2023-01-28T05:07:36.110Z,9.00
2023-01-28T05:10:02.449Z,8.37
2023-01-28T05:12:30.286Z,8.90
2023-01-28T05:14:56.837Z,9.47
2023-01-28T05:17:23.279Z,7.37
2023-01-28T05:19:49.815Z,7.90
2023-01-28T05:22:16.252Z,7.20
2023-01-28T05:24:42.706Z,10.20
2023-01-28T05:27:09.371Z,9.83
2023-01-28T05:29:35.926Z,6.50
2023-01-28T05:32:02.415Z,7.53
2023-01-28T05:34:28.829Z,5.87
2023-01-28T05:36:55.342Z,8.17
2023-01-28T05:39:21.741Z,7.77
2023-01-28T05:41:48.113Z,6.47
2023-01-28T05:44:14.596Z,7.17
2023-01-28T05:46:45.245Z,5.80
2023-01-28T05:49:13.450Z,6.30
2023-01-28T05:51:40.904Z,5.93
2023-01-28T05:54:08.167Z,6.23
2023-01-28T05:56:36.434Z,6.67
2023-01-28T05:59:05.587Z,6.67
2023-01-28T06:01:32.003Z,6.63
2023-01-28T06:03:59.135Z,6.83
2023-01-28T06:06:25.512Z,6.07
2023-01-28T06:08:51.884Z,6.77
2023-01-28T06:11:19.812Z,6.33
2023-01-28T06:13:46.320Z,5.80
2023-01-28T06:16:12.886Z,5.90
2023-01-28T06:18:41.272Z,5.60
2023-01-28T06:21:08.226Z,5.97
2023-01-28T06:23:34.624Z,5.90
2023-01-28T06:26:01.042Z,5.20
2023-01-28T06:28:27.441Z,8.03
2023-01-28T06:30:54.251Z,5.97
2023-01-28T06:33:21.761Z,5.87
2023-01-28T06:35:48.138Z,8.87
2023-01-28T06:38:14.675Z,5.93
2023-01-28T06:40:41.024Z,5.93
2023-01-28T06:43:07.419Z,6.77
2023-01-28T06:45:34.039Z,6.83
2023-01-28T06:48:00.610Z,6.30
2023-01-28T06:50:26.986Z,6.20
2023-01-28T06:52:53.425Z,5.47
2023-01-28T06:55:19.932Z,5.87
2023-01-28T06:57:46.655Z,6.80
2023-01-28T07:00:16.062Z,4.90
2023-01-28T07:02:42.747Z,6.00
2023-01-28T07:05:09.699Z,5.50
2023-01-28T07:07:36.091Z,6.07
2023-01-28T07:10:03.694Z,5.60
2023-01-28T07:12:30.048Z,5.90
2023-01-28T07:14:56.469Z,5.40
2023-01-28T07:17:23.115Z,5.17
2023-01-28T07:19:49.529Z,5.57
2023-01-28T07:22:15.944Z,4.80
2023-01-28T07:24:42.263Z,5.20
2023-01-28T07:27:08.646Z,6.07
2023-01-28T07:29:35.013Z,4.40
2023-01-28T07:32:01.491Z,5.50
2023-01-28T07:34:28.022Z,5.00
2023-01-28T07:36:57.297Z,5.00
2023-01-28T07:39:24.041Z,5.20
2023-01-28T07:41:50.471Z,4.20
2023-01-28T07:44:16.836Z,4.13
2023-01-28T07:46:43.203Z,4.17
2023-01-28T07:49:09.747Z,4.30
2023-01-28T07:51:36.118Z,4.13
2023-01-28T07:54:02.456Z,4.67
2023-01-28T07:56:31.333Z,4.03
2023-01-28T07:58:57.722Z,5.63
2023-01-28T08:01:24.330Z,4.37
2023-01-28T08:03:50.775Z,4.50
2023-01-28T08:06:17.141Z,5.33
2023-01-28T08:08:43.540Z,3.90
2023-01-28T08:11:11.498Z,4.20
2023-01-28T08:13:37.952Z,4.10
2023-01-28T08:16:04.805Z,5.10
2023-01-28T08:18:31.806Z,4.27
2023-01-28T08:20:59.303Z,5.43
2023-01-28T08:23:27.285Z,4.97
2023-01-28T08:25:54.235Z,5.10
2023-01-28T08:28:21.832Z,4.83
2023-01-28T08:30:48.473Z,4.67
2023-01-28T08:33:16.825Z,5.00
2023-01-28T08:35:43.621Z,4.67
2023-01-28T08:38:12.521Z,5.10
2023-01-28T08:40:39.365Z,5.03
2023-01-28T08:43:05.718Z,6.03
2023-01-28T08:45:32.321Z,7.80
2023-01-28T08:48:01.022Z,5.30
2023-01-28T08:50:32.477Z,5.20
2023-01-28T08:53:01.846Z,5.27
2023-01-28T08:55:28.788Z,4.37
2023-01-28T08:57:58.113Z,4.10
2023-01-28T09:00:25.005Z,4.83
2023-01-28T09:02:53.055Z,4.57
2023-01-28T09:05:20.215Z,4.80
2023-01-28T09:07:47.227Z,4.90
2023-01-28T09:10:14.810Z,4.83
2023-01-28T09:12:42.150Z,4.97
2023-01-28T09:15:09.469Z,5.70
2023-01-28T09:17:35.901Z,4.57
2023-01-28T09:20:02.345Z,5.20
2023-01-28T09:22:28.659Z,5.30
2023-01-28T09:24:55.033Z,5.70
2023-01-28T09:27:21.537Z,5.70
2023-01-28T09:29:47.976Z,6.23
2023-01-28T09:32:14.472Z,5.60
2023-01-28T09:34:41.015Z,5.67
2023-01-28T09:37:07.522Z,5.67
2023-01-28T09:39:33.957Z,5.17
2023-01-28T09:42:22.218Z,7.80
2023-01-28T09:45:07.031Z,6.07
2023-01-28T09:47:41.093Z,6.83
2023-01-28T09:50:15.223Z,5.67
2023-01-28T09:52:42.401Z,6.00
2023-01-28T09:55:35.566Z,4.50
2023-01-28T09:58:02.079Z,4.80
2023-01-28T10:00:59.085Z,4.50
2023-01-28T10:03:51.376Z,4.83
2023-01-28T10:06:50.242Z,4.80
2023-01-28T10:09:43.925Z,5.63
2023-01-28T10:12:47.145Z,5.23
2023-01-28T10:15:44.852Z,5.73
2023-01-28T10:18:17.659Z,6.17
2023-01-28T10:21:01.425Z,6.00
2023-01-28T10:24:11.231Z,6.00
2023-01-28T10:26:40.336Z,6.93
2023-01-28T10:29:17.508Z,6.53
2023-01-28T10:31:52.224Z,6.43
2023-01-28T10:34:20.199Z,6.30
2023-01-28T10:36:47.946Z,7.53
2023-01-28T10:39:16.882Z,6.13
2023-01-28T10:41:56.749Z,7.17
2023-01-28T10:44:37.927Z,6.73
2023-01-28T10:47:24.312Z,7.03
2023-01-28T10:49:56.220Z,6.33
2023-01-28T10:52:22.560Z,6.07
2023-01-28T10:54:59.638Z,6.03
2023-01-28T10:57:26.046Z,7.43
2023-01-28T10:59:52.446Z,6.43
2023-01-28T11:02:35.840Z,6.93
2023-01-28T11:05:11.539Z,7.40
2023-01-28T11:07:38.122Z,7.37
2023-01-28T11:10:26.454Z,9.47
2023-01-28T11:12:57.550Z,7.33
2023-01-28T11:15:24.012Z,7.83
2023-01-28T11:18:11.387Z,7.17
2023-01-28T11:20:43.656Z,7.40
2023-01-28T11:23:29.671Z,7.00
2023-01-28T11:26:05.448Z,7.17
2023-01-28T11:28:32.347Z,6.93
2023-01-28T11:31:02.407Z,9.23
2023-01-28T11:33:39.750Z,8.20
2023-01-28T11:36:15.491Z,7.40
2023-01-28T11:38:53.748Z,7.33
2023-01-28T11:41:30.169Z,8.50
2023-01-28T11:43:58.914Z,11.50
2023-01-28T11:46:52.851Z,18.63
2023-01-28T11:49:50.787Z,9.77
2023-01-28T11:52:55.473Z,10.93
2023-01-28T11:55:37.488Z,7.80
2023-01-28T11:58:18.890Z,7.53
2023-01-28T12:00:51.392Z,7.77
2023-01-28T12:03:24.903Z,14.70
2023-01-28T12:05:54.938Z,9.73
2023-01-28T12:08:28.251Z,13.40
2023-01-28T12:11:19.757Z,9.47
2023-01-28T12:14:10.632Z,7.70
2023-01-28T12:17:02.617Z,8.57
2023-01-28T12:19:46.210Z,8.13
2023-01-28T12:22:40.227Z,7.30
2023-01-28T12:25:20.662Z,7.50
2023-01-28T12:28:10.606Z,10.13
2023-01-28T12:30:54.836Z,7.73
2023-01-28T12:33:41.271Z,8.57
2023-01-28T12:36:27.260Z,10.67
2023-01-28T12:38:56.626Z,9.80
2023-01-28T12:41:31.711Z,9.43
2023-01-28T12:44:06.808Z,9.30
2023-01-28T12:46:45.657Z,9.90
2023-01-28T12:49:16.645Z,10.30
2023-01-28T12:52:00.113Z,9.33
2023-01-28T12:54:38.689Z,8.93
2023-01-28T12:57:11.573Z,8.10
2023-01-28T12:59:51.353Z,9.00
2023-01-28T13:02:26.540Z,8.90
2023-01-28T13:05:09.665Z,11.47
2023-01-28T13:08:01.289Z,7.93
2023-01-28T13:10:40.228Z,7.37
2023-01-28T13:13:07.722Z,7.87
2023-01-28T13:15:38.730Z,7.37
2023-01-28T13:18:05.790Z,8.00
2023-01-28T13:20:48.908Z,8.63
2023-01-28T13:23:39.743Z,11.27
2023-01-28T13:26:29.518Z,9.83
2023-01-28T13:29:16.001Z,7.47
2023-01-28T13:31:45.494Z,7.23
2023-01-28T13:34:36.234Z,8.67
2023-01-28T13:37:30.675Z,9.93
2023-01-28T13:40:06.999Z,7.30
2023-01-28T13:42:33.459Z,7.47
2023-01-28T13:45:29.691Z,7.07
2023-01-28T13:48:36.385Z,7.03
2023-01-28T13:51:04.216Z,10.83
2023-01-28T13:53:39.794Z,7.23
2023-01-28T13:56:18.429Z,7.20
2023-01-28T13:59:03.622Z,7.70
2023-01-28T14:01:34.152Z,6.87
2023-01-28T14:04:33.022Z,6.87
2023-01-28T14:07:33.740Z,6.90
2023-01-28T14:10:19.443Z,6.20
2023-01-28T14:13:16.727Z,7.00
2023-01-28T14:16:17.631Z,8.67
2023-01-28T14:18:45.706Z,6.47
2023-01-28T14:21:15.274Z,11.40
2023-01-28T14:23:53.678Z,7.87
2023-01-28T14:26:28.601Z,6.90
2023-01-28T14:29:32.607Z,6.73
2023-01-28T14:32:04.281Z,6.37
2023-01-28T14:34:34.458Z,7.03
2023-01-28T14:37:04.893Z,6.97
2023-01-28T14:39:40.682Z,7.33
2023-01-28T14:42:16.506Z,6.50
2023-01-28T14:44:44.933Z,6.93
2023-01-28T14:47:40.329Z,7.30
2023-01-28T14:50:34.334Z,7.97
2023-01-28T14:53:12.990Z,9.87
2023-01-28T14:56:05.183Z,8.70
2023-01-28T14:58:44.700Z,7.93
2023-01-28T15:01:43.873Z,7.90
2023-01-28T15:04:31.387Z,7.53
2023-01-28T15:07:02.649Z,6.73
2023-01-28T15:09:29.006Z,7.20
2023-01-28T15:11:58.047Z,7.37
2023-01-28T15:14:30.324Z,8.13
2023-01-28T15:16:57.699Z,7.17
2023-01-28T15:19:32.199Z,6.50
2023-01-28T15:22:01.900Z,6.57
2023-01-28T15:24:28.647Z,9.13
2023-01-28T15:26:55.124Z,8.20
2023-01-28T15:29:36.787Z,6.07
2023-01-28T15:32:05.113Z,5.80
2023-01-28T15:34:31.999Z,6.17
2023-01-28T15:37:13.606Z,6.87
2023-01-28T15:39:41.042Z,6.87
2023-01-28T15:42:07.761Z,7.50
2023-01-28T15:44:42.933Z,14.27
2023-01-28T15:47:16.952Z,7.80
2023-01-28T15:49:47.351Z,7.00
2023-01-28T15:52:14.630Z,7.17
2023-01-28T15:54:44.404Z,6.93
2023-01-28T15:57:20.691Z,7.33
2023-01-28T15:59:51.022Z,7.40
2023-01-28T16:02:23.727Z,9.97
2023-01-28T16:05:01.103Z,6.80
2023-01-28T16:07:30.435Z,8.03
2023-01-28T16:09:59.241Z,7.37
2023-01-28T16:12:27.206Z,12.47
2023-01-28T16:14:59.125Z,10.67
2023-01-28T16:17:30.427Z,11.47
2023-01-28T16:20:07.859Z,12.40
2023-01-28T16:22:37.078Z,13.27
2023-01-28T16:25:24.099Z,10.37
2023-01-28T16:27:50.540Z,10.60
2023-01-28T16:30:17.499Z,9.93
2023-01-28T16:32:44.914Z,11.73
2023-01-28T16:35:18.182Z,10.50
2023-01-28T16:37:45.294Z,11.73
2023-01-28T16:40:13.546Z,10.50
2023-01-28T16:42:40.103Z,10.27
2023-01-28T16:45:07.677Z,9.87
2023-01-28T16:47:34.712Z,10.73
2023-01-28T16:50:01.261Z,9.53
2023-01-28T16:52:27.704Z,9.57
2023-01-28T16:54:54.866Z,10.00
2023-01-28T16:57:22.568Z,9.80
2023-01-28T16:59:48.951Z,9.57
2023-01-28T17:02:17.601Z,11.90
2023-01-28T17:04:44.093Z,10.53
2023-01-28T17:07:10.900Z,11.40
2023-01-28T17:09:37.364Z,12.70
2023-01-28T17:12:04.316Z,12.07
2023-01-28T17:14:30.857Z,13.67
2023-01-28T17:16:57.279Z,14.17
2023-01-28T17:19:23.723Z,13.10
2023-01-28T17:21:50.209Z,13.07
2023-01-28T17:24:16.766Z,15.47
2023-01-28T17:26:43.282Z,14.57
2023-01-28T17:29:09.916Z,13.40
2023-01-28T17:31:36.648Z,12.47
2023-01-28T17:34:03.232Z,14.50
2023-01-28T17:36:29.768Z,14.07
2023-01-28T17:38:56.186Z,14.90
2023-01-28T17:41:22.987Z,15.13
2023-01-28T17:43:54.839Z,13.77
2023-01-28T17:46:23.626Z,14.43
2023-01-28T17:48:50.088Z,14.30
2023-01-28T17:51:17.259Z,13.90
2023-01-28T17:53:48.207Z,12.30
2023-01-28T17:56:17.657Z,14.00
2023-01-28T17:58:44.902Z,16.23
2023-01-28T18:01:11.489Z,15.77
2023-01-28T18:03:37.959Z,17.13
2023-01-28T18:06:04.790Z,13.50
2023-01-28T18:08:31.293Z,14.53
2023-01-28T18:10:58.174Z,12.57
2023-01-28T18:13:24.572Z,13.83
2023-01-28T18:15:51.155Z,16.07
2023-01-28T18:18:17.568Z,16.67
2023-01-28T18:20:44.052Z,18.50
2023-01-28T18:23:10.661Z,14.90
2023-01-28T18:25:37.244Z,18.93
2023-01-28T18:28:05.255Z,18.17
2023-01-28T18:30:31.738Z,17.50
2023-01-28T18:32:58.130Z,16.77
2023-01-28T18:35:24.552Z,17.87
2023-01-28T18:37:50.949Z,16.37
2023-01-28T18:40:17.742Z,18.40
2023-01-28T18:42:45.030Z,19.00
2023-01-28T18:45:11.656Z,21.70
2023-01-28T18:47:38.105Z,18.43
2023-01-28T18:50:05.046Z,20.07
2023-01-28T18:52:31.372Z,18.97
2023-01-28T18:54:57.829Z,24.90
2023-01-28T18:57:24.255Z,29.77
2023-01-28T18:59:50.685Z,48.00
2023-01-28T19:02:17.248Z,40.63
2023-01-28T19:04:43.676Z,27.57
2023-01-28T19:07:11.756Z,22.13
2023-01-28T19:09:38.694Z,23.00
2023-01-28T19:12:05.425Z,18.97
2023-01-28T19:14:32.086Z,20.10
2023-01-28T19:16:58.523Z,21.67
2023-01-28T19:19:25.394Z,22.20
2023-01-28T19:21:51.822Z,23.67
2023-01-28T19:24:18.387Z,23.47
2023-01-28T19:26:45.048Z,21.93
2023-01-28T19:29:15.406Z,27.43
2023-01-28T19:31:43.143Z,26.53
2023-01-28T19:34:10.587Z,22.27
2023-01-28T19:36:37.565Z,25.23
2023-01-28T19:39:06.997Z,24.57
2023-01-28T19:41:33.870Z,24.03
2023-01-28T19:44:00.352Z,26.50
2023-01-28T19:46:27.190Z,33.20
2023-01-28T19:48:54.517Z,25.50
2023-01-28T19:51:21.587Z,22.40
2023-01-28T19:53:50.726Z,22.17
2023-01-28T19:56:18.627Z,26.90
2023-01-28T19:58:45.766Z,22.07
2023-01-28T20:01:29.674Z,24.07
2023-01-28T20:03:59.224Z,24.63
2023-01-28T20:06:27.953Z,25.40
2023-01-28T20:08:56.782Z,26.53
2023-01-28T20:11:23.612Z,23.37
2023-01-28T20:13:51.782Z,25.53
2023-01-28T20:16:25.127Z,23.87
2023-01-28T20:19:07.020Z,20.47
2023-01-28T20:21:34.707Z,23.23
2023-01-28T20:24:02.664Z,25.60
2023-01-28T20:26:31.731Z,22.63
2023-01-28T20:29:05.428Z,28.13
2023-01-28T20:31:33.091Z,23.70
2023-01-28T20:34:00.595Z,26.07
2023-01-28T20:36:27.143Z,25.63
2023-01-28T20:38:53.581Z,27.60
2023-01-28T20:41:23.669Z,24.87
2023-01-28T20:43:51.563Z,25.53
2023-01-28T20:46:20.855Z,26.67
2023-01-28T20:48:48.428Z,24.37
2023-01-28T20:51:17.782Z,25.40
2023-01-28T20:53:44.912Z,27.47
2023-01-28T20:56:14.419Z,27.67
2023-01-28T20:58:41.323Z,24.57
2023-01-28T21:01:07.787Z,28.53
2023-01-28T21:03:34.382Z,26.20
2023-01-28T21:06:02.005Z,27.00
2023-01-28T21:08:28.405Z,23.00
2023-01-28T21:10:55.104Z,31.33
2023-01-28T21:13:21.474Z,27.90
2023-01-28T21:15:52.942Z,25.63
2023-01-28T21:18:19.451Z,28.93
2023-01-28T21:20:45.827Z,29.57
2023-01-28T21:23:14.744Z,28.10
2023-01-28T21:25:47.084Z,28.87
2023-01-28T21:28:14.035Z,29.57
2023-01-28T21:30:41.151Z,25.40
2023-01-28T21:33:08.487Z,25.50
2023-01-28T21:35:39.783Z,27.40
2023-01-28T21:38:07.121Z,28.33
2023-01-28T21:40:34.544Z,36.83
2023-01-28T21:43:01.667Z,35.47
2023-01-28T21:45:28.860Z,33.67
2023-01-28T21:47:55.341Z,33.30
2023-01-28T21:50:22.631Z,28.07
2023-01-28T21:52:50.466Z,29.77
2023-01-28T21:55:18.167Z,32.03
2023-01-28T21:57:44.720Z,31.83
2023-01-28T22:00:12.929Z,25.30
2023-01-28T22:02:39.961Z,28.60
2023-01-28T22:05:06.649Z,29.43
2023-01-28T22:07:33.169Z,28.67
2023-01-28T22:09:59.512Z,30.87
2023-01-28T22:12:27.414Z,30.57
2023-01-28T22:14:53.985Z,31.90
2023-01-28T22:17:20.588Z,29.83
2023-01-28T22:19:48.161Z,30.53
2023-01-28T22:22:16.060Z,30.90
2023-01-28T22:24:42.773Z,29.17
2023-01-28T22:27:09.377Z,33.00
2023-01-28T22:29:35.865Z,34.03
2023-01-28T22:32:04.667Z,33.33
2023-01-28T22:34:31.346Z,31.03
2023-01-28T22:36:57.785Z,28.43
2023-01-28T22:39:24.223Z,32.53
2023-01-28T22:41:50.705Z,31.40
2023-01-28T22:44:19.652Z,27.27
2023-01-28T22:46:47.180Z,30.83
2023-01-28T22:49:15.051Z,26.60
2023-01-28T22:51:41.945Z,28.47
2023-01-28T22:54:10.866Z,24.63
2023-01-28T22:56:37.938Z,26.87
2023-01-28T22:59:04.535Z,25.57
2023-01-28T23:01:31.779Z,28.80
2023-01-28T23:03:58.707Z,27.17
2023-01-28T23:06:26.671Z,28.37
2023-01-28T23:08:54.266Z,30.77
2023-01-28T23:11:28.215Z,28.67
2023-01-28T23:14:16.192Z,29.40
2023-01-28T23:17:01.910Z,24.07
2023-01-28T23:19:47.009Z,25.70
2023-01-28T23:22:36.153Z,26.73
2023-01-28T23:25:02.560Z,26.47
2023-01-28T23:27:28.909Z,26.70
2023-01-28T23:29:55.489Z,27.07
2023-01-28T23:32:22.698Z,29.33
2023-01-28T23:34:49.094Z,24.30
2023-01-28T23:37:15.717Z,26.83
2023-01-28T23:39:42.973Z,28.93
2023-01-28T23:42:10.360Z,26.90
2023-01-28T23:44:36.876Z,25.80
2023-01-28T23:47:03.288Z,24.13
2023-01-28T23:49:29.703Z,28.37
2023-01-28T23:51:56.155Z,28.27
2023-01-28T23:54:22.522Z,25.80
2023-01-28T23:56:48.869Z,25.67
2023-01-28T23:59:15.270Z,28.97
